createdAt,value
2022-08-22T00:00:20.288Z,96192.22
2022-08-22T00:02:45.528Z,96175.09
2022-08-22T00:02:53.685Z,96184.38
2022-08-22T00:02:55.263Z,96191.91
2022-08-22T00:02:55.811Z,96192.69
2022-08-22T00:03:08.203Z,96200.91
2022-08-22T00:03:16.217Z,96189.88
2022-08-22T00:05:32.977Z,96186.88
2022-08-22T00:07:59.554Z,96190.94
2022-08-22T00:10:26.082Z,96184.34
2022-08-22T00:12:52.442Z,96179.94
2022-08-22T00:15:42.108Z,96185.16
2022-08-22T00:18:05.657Z,96191.13
2022-08-22T00:20:32.144Z,96185.16
2022-08-22T00:22:58.503Z,96188.44
2022-08-22T00:25:26.119Z,96181.84
2022-08-22T00:27:52.712Z,96182.47
2022-08-22T00:30:19.068Z,96188.31
2022-08-22T00:32:45.433Z,96182.97
2022-08-22T00:35:11.797Z,96177.94
2022-08-22T00:37:38.172Z,96182.78
2022-08-22T00:40:04.558Z,96185.78
2022-08-22T00:42:32.104Z,96173.84
2022-08-22T00:44:58.708Z,96179.94
2022-08-22T00:47:25.082Z,96177.13
2022-08-22T00:49:51.464Z,96177.94
2022-08-22T00:52:17.829Z,96175.06
2022-08-22T00:54:44.182Z,96180.28
2022-08-22T00:57:10.536Z,96180.09
2022-08-22T00:59:36.888Z,96175.56
2022-08-22T01:02:03.249Z,96170.22
2022-08-22T01:04:29.613Z,96169.59
2022-08-22T01:06:55.968Z,96170.22
2022-08-22T01:09:22.349Z,96167.06
2022-08-22T01:11:48.715Z,96167.53
2022-08-22T01:14:15.077Z,96166.56
2022-08-22T01:16:41.461Z,96161.72
2022-08-22T01:19:07.807Z,96166.25
2022-08-22T01:21:34.168Z,96164.41
2022-08-22T01:24:00.542Z,96163.28
2022-08-22T01:26:28.551Z,96163.59
2022-08-22T01:28:54.971Z,96160.13
2022-08-22T01:31:21.616Z,96154.47
2022-08-22T01:33:48.866Z,96163.28
2022-08-22T01:36:16.200Z,96156.06
2022-08-22T01:38:42.701Z,96154.94
2022-08-22T01:41:10.421Z,96154.47
2022-08-22T01:43:58.746Z,96158.41
2022-08-22T01:46:24.792Z,96149.47
2022-08-22T01:48:51.147Z,96153.56
2022-08-22T01:51:17.506Z,96153.69
2022-08-22T01:53:43.863Z,96150.09
2022-08-22T01:56:10.230Z,96152.44
2022-08-22T01:58:36.582Z,96147.88
2022-08-22T02:01:03.009Z,96149.28
2022-08-22T02:03:29.387Z,96150.09
2022-08-22T02:05:55.745Z,96138.59
2022-08-22T02:08:22.113Z,96139.41
2022-08-22T02:10:48.475Z,96139.41
2022-08-22T02:13:14.837Z,96142.06
2022-08-22T02:15:41.207Z,96140.66
2022-08-22T02:18:10.340Z,96141.75
2022-08-22T02:20:36.699Z,96138.44
2022-08-22T02:23:03.055Z,96139.38
2022-08-22T02:25:29.415Z,96136.84
2022-08-22T02:27:55.798Z,96134.03
2022-08-22T02:30:22.249Z,96127.59
2022-08-22T02:32:48.601Z,96136.22
2022-08-22T02:35:14.964Z,96119.56
2022-08-22T02:37:41.325Z,96122.88
2022-08-22T02:40:07.726Z,96118.94
2022-08-22T02:42:34.137Z,96112.81
2022-08-22T02:45:00.490Z,96112.66
2022-08-22T02:47:26.845Z,96109.34
2022-08-22T02:49:53.205Z,96110.28
2022-08-22T02:52:22.201Z,96107.63
2022-08-22T02:54:48.586Z,96111.09
2022-08-22T02:57:14.944Z,96107.31
2022-08-22T02:59:41.306Z,96102.59
2022-08-22T03:02:07.664Z,96093.78
2022-08-22T03:04:34.035Z,96100.41
2022-08-22T03:07:00.391Z,96102.59
2022-08-22T03:09:26.740Z,96094.09
2022-08-22T03:11:53.105Z,96095.34
2022-08-22T03:14:19.455Z,96095.22
2022-08-22T03:16:45.822Z,96094.09
2022-08-22T03:19:18.457Z,96087.06
2022-08-22T03:21:45.309Z,96088.75
2022-08-22T03:24:11.663Z,96085.00
2022-08-22T03:26:38.042Z,96088.75
2022-08-22T03:29:04.414Z,96085.47
2022-08-22T03:31:30.770Z,96079.66
2022-08-22T03:33:57.131Z,96080.44
2022-08-22T03:36:23.497Z,96075.25
2022-08-22T03:38:49.861Z,96071.16
2022-08-22T03:41:16.229Z,96079.81
2022-08-22T03:43:42.593Z,96074.78
2022-08-22T03:46:08.970Z,96072.09
2022-08-22T03:48:35.326Z,96068.00
2022-08-22T03:51:03.914Z,96080.88
2022-08-22T03:53:30.273Z,96076.78
2022-08-22T03:55:56.641Z,96076.78
2022-08-22T03:58:28.048Z,96082.16
2022-08-22T04:00:55.980Z,96082.44
2022-08-22T04:03:23.145Z,96085.44
2022-08-22T04:05:49.505Z,96082.44
2022-08-22T04:08:24.257Z,96081.50
2022-08-22T04:10:52.450Z,96082.13
2022-08-22T04:13:18.804Z,96084.19
2022-08-22T04:15:51.097Z,96087.47
2022-08-22T04:18:17.465Z,96092.19
2022-08-22T04:20:44.837Z,96082.47
2022-08-22T04:23:11.201Z,96087.81
2022-08-22T04:25:37.560Z,96092.38
2022-08-22T04:28:03.919Z,96089.88
2022-08-22T04:30:30.292Z,96089.56
2022-08-22T04:32:56.651Z,96099.13
2022-08-22T04:35:23.015Z,96095.50
2022-08-22T04:37:49.382Z,96094.41
2022-08-22T04:40:15.832Z,96095.84
2022-08-22T04:42:42.277Z,96090.97
2022-08-22T04:45:08.648Z,96102.13
2022-08-22T04:47:35.004Z,96098.50
2022-08-22T04:50:01.356Z,96100.69
2022-08-22T04:52:29.594Z,96107.47
2022-08-22T04:54:56.090Z,96102.59
2022-08-22T04:57:22.468Z,96123.97
2022-08-22T04:59:48.836Z,96123.19
2022-08-22T05:02:17.533Z,96128.06
2022-08-22T05:04:43.885Z,96133.41
2022-08-22T05:07:10.255Z,96134.66
2022-08-22T05:09:36.628Z,96139.06
2022-08-22T05:12:02.993Z,96137.66
2022-08-22T05:14:29.354Z,96146.94
2022-08-22T05:16:55.724Z,96158.09
2022-08-22T05:19:29.686Z,96159.19
2022-08-22T05:21:58.210Z,96164.06
2022-08-22T05:24:28.089Z,96164.88
2022-08-22T05:26:54.620Z,96165.81
2022-08-22T05:29:20.995Z,96163.63
2022-08-22T05:31:47.360Z,96162.03
2022-08-22T05:34:13.720Z,96165.97
2022-08-22T05:36:40.094Z,96164.06
2022-08-22T05:39:06.467Z,96160.63
2022-08-22T05:41:32.834Z,96165.66
2022-08-22T05:43:59.196Z,96165.97
2022-08-22T05:46:27.360Z,96163.00
2022-08-22T05:48:53.765Z,96164.38
2022-08-22T05:51:20.128Z,96161.41
2022-08-22T05:53:46.488Z,96169.09
2022-08-22T05:56:12.847Z,96163.00
2022-08-22T05:58:39.227Z,96163.91
2022-08-22T06:01:05.595Z,96155.91
2022-08-22T06:03:31.960Z,96160.00
2022-08-22T06:05:58.343Z,96157.16
2022-08-22T06:08:24.714Z,96162.81
2022-08-22T06:10:51.067Z,96154.78
2022-08-22T06:13:17.419Z,96153.53
2022-08-22T06:15:50.897Z,96158.88
2022-08-22T06:18:17.269Z,96162.06
2022-08-22T06:20:43.636Z,96165.84
2022-08-22T06:23:09.992Z,96170.56
2022-08-22T06:25:36.355Z,96170.56
2022-08-22T06:28:02.716Z,96172.59
2022-08-22T06:30:29.071Z,96179.69
2022-08-22T06:32:59.407Z,96178.59
2022-08-22T06:35:26.846Z,96180.16
2022-08-22T06:37:53.237Z,96190.69
2022-08-22T06:40:19.741Z,96195.13
2022-08-22T06:42:46.191Z,96188.03
2022-08-22T06:45:12.560Z,96196.69
2022-08-22T06:47:38.923Z,96189.75
2022-08-22T06:50:05.800Z,96195.13
2022-08-22T06:52:32.159Z,96194.16
2022-08-22T06:54:58.525Z,96180.00
2022-08-22T06:57:25.167Z,96184.09
2022-08-22T06:59:51.531Z,96177.19
2022-08-22T07:02:17.891Z,96178.72
2022-08-22T07:04:44.908Z,96174.31
2022-08-22T07:07:11.255Z,96174.94
2022-08-22T07:09:37.609Z,96182.34
2022-08-22T07:12:03.975Z,96191.97
2022-08-22T07:14:30.335Z,96191.16
2022-08-22T07:16:56.691Z,96200.44
2022-08-22T07:19:23.041Z,96192.25
2022-08-22T07:21:49.406Z,96187.53
2022-08-22T07:24:15.774Z,96182.03
2022-08-22T07:26:42.147Z,96189.59
2022-08-22T07:29:11.479Z,96188.78
2022-08-22T07:31:37.976Z,96193.50
2022-08-22T07:34:04.773Z,96181.84
2022-08-22T07:36:31.906Z,96194.16
2022-08-22T07:38:58.526Z,96185.94
2022-08-22T07:41:24.908Z,96188.16
2022-08-22T07:43:51.267Z,96188.16
2022-08-22T07:46:17.621Z,96192.41
2022-08-22T07:49:05.876Z,96193.97
2022-08-22T07:51:30.323Z,96189.53
2022-08-22T07:54:00.361Z,96186.25
2022-08-22T07:56:27.221Z,96182.31
2022-08-22T07:58:53.604Z,96181.34
2022-08-22T08:01:20.034Z,96179.00
2022-08-22T08:03:46.481Z,96178.84
2022-08-22T08:06:12.840Z,96180.56
2022-08-22T08:08:39.192Z,96172.22
2022-08-22T08:11:05.558Z,96179.00
2022-08-22T08:13:31.928Z,96178.03
2022-08-22T08:15:58.286Z,96182.16
2022-08-22T08:18:24.636Z,96175.84
2022-08-22T08:20:51.004Z,96173.16
2022-08-22T08:23:17.378Z,96172.38
2022-08-22T08:25:53.754Z,96176.59
2022-08-22T08:28:20.257Z,96181.81
2022-08-22T08:30:47.928Z,96194.09
2022-08-22T08:33:24.627Z,96184.63
2022-08-22T08:36:02.265Z,96182.31
2022-08-22T08:38:30.052Z,96177.41
2022-08-22T08:40:56.410Z,96174.91
2022-08-22T08:43:22.784Z,96183.38
2022-08-22T08:45:49.137Z,96190.34
2022-08-22T08:48:15.497Z,96197.72
2022-08-22T08:50:43.295Z,96188.91
2022-08-22T08:53:09.718Z,96181.47
2022-08-22T08:55:36.957Z,96185.91
2022-08-22T08:58:07.058Z,96173.00
2022-08-22T09:00:33.576Z,96172.66
2022-08-22T09:02:59.931Z,96161.50
2022-08-22T09:05:32.807Z,96157.84
2022-08-22T09:07:59.289Z,96150.94
2022-08-22T09:10:28.729Z,96164.00
2022-08-22T09:13:11.326Z,96155.00
2022-08-22T09:15:39.014Z,96155.34
2022-08-22T09:18:05.407Z,96154.06
2022-08-22T09:20:32.901Z,96145.84
2022-08-22T09:22:59.256Z,96149.19
2022-08-22T09:25:25.626Z,96145.56
2022-08-22T09:27:51.986Z,96144.94
2022-08-22T09:30:18.341Z,96139.56
2022-08-22T09:32:54.167Z,96146.97
2022-08-22T09:35:20.519Z,96134.88
2022-08-22T09:37:48.892Z,96145.91
2022-08-22T09:40:21.266Z,96131.06
2022-08-22T09:42:51.197Z,96142.44
2022-08-22T09:45:18.208Z,96140.88
2022-08-22T09:47:44.571Z,96148.41
2022-08-22T09:50:10.922Z,96146.22
2022-08-22T09:52:37.305Z,96154.69
2022-08-22T09:55:03.692Z,96147.13
2022-08-22T09:57:34.549Z,96144.78
2022-08-22T10:00:00.908Z,96144.13
2022-08-22T10:02:28.505Z,96132.47
2022-08-22T10:04:56.467Z,96131.34
2022-08-22T10:07:24.578Z,96132.94
2022-08-22T10:09:53.584Z,96138.00
2022-08-22T10:12:24.801Z,96142.69
2022-08-22T10:14:51.357Z,96147.13
2022-08-22T10:17:21.948Z,96142.69
2022-08-22T10:19:48.537Z,96141.78
2022-08-22T10:22:15.163Z,96134.22
2022-08-22T10:24:44.020Z,96138.00
2022-08-22T10:27:10.539Z,96138.78
2022-08-22T10:29:36.911Z,96140.22
2022-08-22T10:32:10.815Z,96132.63
2022-08-22T10:34:41.016Z,96136.44
2022-08-22T10:37:08.644Z,96138.00
2022-08-22T10:39:36.713Z,96138.47
2022-08-22T10:42:03.091Z,96142.25
2022-08-22T10:44:29.479Z,96136.44
2022-08-22T10:46:56.340Z,96121.44
2022-08-22T10:49:28.749Z,96122.06
2022-08-22T10:51:56.380Z,96122.56
2022-08-22T10:54:24.754Z,96124.94
2022-08-22T10:56:51.112Z,96122.41
2022-08-22T10:59:18.936Z,96118.28
2022-08-22T11:01:49.185Z,96109.00
2022-08-22T11:04:15.563Z,96117.50
2022-08-22T11:06:41.922Z,96117.50
2022-08-22T11:09:11.148Z,96121.28
2022-08-22T11:11:37.645Z,96118.16
2022-08-22T11:14:04.357Z,96112.81
2022-08-22T11:16:30.734Z,96117.22
2022-08-22T11:19:14.610Z,96120.38
2022-08-22T11:21:41.781Z,96121.47
2022-08-22T11:24:08.171Z,96115.00
2022-08-22T11:26:47.245Z,96112.81
2022-08-22T11:29:14.549Z,96115.94
2022-08-22T11:31:51.313Z,96112.94
2022-08-22T11:34:20.554Z,96105.22
2022-08-22T11:36:47.052Z,96103.66
2022-08-22T11:39:18.362Z,96102.84
2022-08-22T11:41:45.284Z,96103.66
2022-08-22T11:44:18.861Z,96105.09
2022-08-22T11:46:45.221Z,96105.22
2022-08-22T11:49:11.584Z,96101.44
2022-08-22T11:51:37.944Z,96106.00
2022-08-22T11:54:05.312Z,96089.16
2022-08-22T11:56:31.674Z,96091.50
2022-08-22T11:58:58.048Z,96091.06
2022-08-22T12:01:24.405Z,96097.19
2022-08-22T12:03:53.985Z,96092.31
2022-08-22T12:06:24.885Z,96090.09
2022-08-22T12:08:51.238Z,96094.19
2022-08-22T12:11:17.595Z,96083.03
2022-08-22T12:13:44.207Z,96081.59
2022-08-22T12:16:10.590Z,96090.84
2022-08-22T12:18:37.387Z,96089.44
2022-08-22T12:21:03.744Z,96086.28
2022-08-22T12:23:48.991Z,96084.41
2022-08-22T12:26:16.239Z,96093.09
2022-08-22T12:28:42.780Z,96077.03
2022-08-22T12:31:09.131Z,96085.50
2022-08-22T12:33:36.136Z,96084.25
2022-08-22T12:36:02.645Z,96085.81
2022-08-22T12:38:34.766Z,96080.16
2022-08-22T12:41:03.743Z,96074.47
2022-08-22T12:43:35.346Z,96078.25
2022-08-22T12:46:12.924Z,96072.91
2022-08-22T12:48:39.817Z,96066.75
2022-08-22T12:51:17.720Z,96069.00
2022-08-22T12:53:44.738Z,96064.88
2022-08-22T12:56:11.369Z,96064.22
2022-08-22T12:58:37.722Z,96059.78
2022-08-22T13:01:04.653Z,96047.19
2022-08-22T13:03:32.800Z,96050.66
2022-08-22T13:06:00.227Z,96056.03
2022-08-22T13:08:26.977Z,96060.72
2022-08-22T13:10:55.581Z,96053.78
2022-08-22T13:13:23.634Z,96048.91
2022-08-22T13:15:58.170Z,96049.22
2022-08-22T13:18:30.470Z,96048.41
2022-08-22T13:20:57.298Z,96044.66
2022-08-22T13:23:24.477Z,96047.34
2022-08-22T13:25:51.914Z,96039.31
2022-08-22T13:28:18.259Z,96044.47
2022-08-22T13:30:44.612Z,96044.00
2022-08-22T13:33:14.606Z,96032.97
2022-08-22T13:35:44.617Z,96038.78
2022-08-22T13:38:23.808Z,96032.66
2022-08-22T13:40:52.153Z,96031.84
2022-08-22T13:43:18.548Z,96027.28
2022-08-22T13:45:44.915Z,96032.31
2022-08-22T13:48:11.387Z,96025.06
2022-08-22T13:50:53.338Z,96030.28
2022-08-22T13:53:20.355Z,96021.28
2022-08-22T13:55:48.989Z,96028.84
2022-08-22T13:58:15.661Z,96026.16
2022-08-22T14:00:48.659Z,96022.72
2022-08-22T14:03:23.785Z,96017.94
2022-08-22T14:05:50.137Z,96019.84
2022-08-22T14:08:19.629Z,96015.91
2022-08-22T14:10:45.983Z,96012.78
2022-08-22T14:13:21.411Z,96013.88
2022-08-22T14:15:47.781Z,96017.47
2022-08-22T14:18:18.494Z,96013.72
2022-08-22T14:20:45.129Z,96014.16
2022-08-22T14:23:13.955Z,96008.34
2022-08-22T14:25:40.333Z,96005.66
2022-08-22T14:28:09.502Z,96014.34
2022-08-22T14:30:36.033Z,96009.44
2022-08-22T14:33:02.522Z,96014.34
2022-08-22T14:35:34.787Z,96009.00
2022-08-22T14:38:03.765Z,96020.16
2022-08-22T14:40:43.453Z,96009.91
2022-08-22T14:43:09.985Z,96016.72
2022-08-22T14:45:36.901Z,96023.63
2022-08-22T14:48:29.711Z,96015.91
2022-08-22T14:50:49.658Z,96010.56
2022-08-22T14:53:19.522Z,96005.84
2022-08-22T14:55:48.788Z,96021.59
2022-08-22T14:58:27.743Z,96015.13
2022-08-22T15:00:54.229Z,96007.41
2022-08-22T15:03:20.596Z,96013.25
2022-08-22T15:05:46.943Z,96008.84
2022-08-22T15:08:13.304Z,96002.72
2022-08-22T15:10:42.324Z,96012.34
2022-08-22T15:13:08.851Z,96004.94
2022-08-22T15:15:49.356Z,96002.28
2022-08-22T15:18:20.035Z,96007.63
2022-08-22T15:20:52.139Z,96000.34
2022-08-22T15:23:18.752Z,95999.59
2022-08-22T15:25:46.902Z,95995.00
2022-08-22T15:28:14.357Z,95992.31
2022-08-22T15:30:46.632Z,95998.00
2022-08-22T15:33:14.178Z,95992.66
2022-08-22T15:35:40.532Z,95984.63
2022-08-22T15:38:06.887Z,95994.84
2022-08-22T15:40:33.240Z,95986.81
2022-08-22T15:42:59.878Z,95987.94
2022-08-22T15:45:26.888Z,95981.94
2022-08-22T15:47:53.476Z,95981.13
2022-08-22T15:50:19.842Z,95989.50
2022-08-22T15:52:46.546Z,95993.31
2022-08-22T15:55:31.373Z,95983.25
2022-08-22T15:58:02.855Z,95991.28
2022-08-22T16:00:29.287Z,95991.75
2022-08-22T16:02:55.707Z,95984.81
2022-08-22T16:05:22.083Z,95990.16
2022-08-22T16:07:48.446Z,95990.16
2022-08-22T16:10:14.805Z,95986.38
2022-08-22T16:12:41.169Z,95990.16
2022-08-22T16:15:07.527Z,95998.66
2022-08-22T16:17:33.880Z,96000.22
2022-08-22T16:20:00.347Z,95985.72
2022-08-22T16:22:26.763Z,95994.84
2022-08-22T16:24:53.128Z,95999.59
2022-08-22T16:27:19.735Z,95993.31
2022-08-22T16:29:46.091Z,95998.34
2022-08-22T16:32:12.476Z,95993.78
2022-08-22T16:34:38.850Z,95993.78
2022-08-22T16:37:05.215Z,95994.25
2022-08-22T16:39:31.584Z,95988.88
2022-08-22T16:41:57.942Z,95993.44
2022-08-22T16:44:24.313Z,95995.78
2022-08-22T16:46:50.662Z,95992.66
2022-08-22T16:49:17.038Z,95996.69
2022-08-22T16:51:43.411Z,95992.00
2022-08-22T16:54:09.771Z,95987.75
2022-08-22T16:56:36.144Z,95996.91
2022-08-22T16:59:19.309Z,95993.59
2022-08-22T17:01:48.968Z,95992.00
2022-08-22T17:04:15.377Z,96006.50
2022-08-22T17:06:41.732Z,95998.47
2022-08-22T17:09:08.079Z,96009.19
2022-08-22T17:11:34.439Z,96008.84
2022-08-22T17:14:00.853Z,96012.50
2022-08-22T17:16:27.240Z,96011.19
2022-08-22T17:18:53.604Z,96015.78
2022-08-22T17:21:25.320Z,96005.84
2022-08-22T17:23:52.115Z,96012.00
2022-08-22T17:26:18.520Z,96006.97
2022-08-22T17:28:44.921Z,96017.88
2022-08-22T17:31:11.451Z,96022.56
2022-08-22T17:33:37.823Z,96013.44
2022-08-22T17:36:04.173Z,96022.72
2022-08-22T17:38:31.512Z,96020.38
2022-08-22T17:40:57.868Z,96024.59
2022-08-22T17:43:24.220Z,96025.72
2022-08-22T17:45:50.603Z,96026.63
2022-08-22T17:48:16.952Z,96032.00
2022-08-22T17:50:43.323Z,96028.84
2022-08-22T17:53:09.694Z,96032.00
2022-08-22T17:55:36.048Z,96032.47
2022-08-22T17:58:03.335Z,96035.00
2022-08-22T18:00:29.712Z,96033.56
2022-08-22T18:02:56.151Z,96035.25
2022-08-22T18:05:22.574Z,96040.50
2022-08-22T18:07:48.941Z,96045.84
2022-08-22T18:10:15.301Z,96045.19
2022-08-22T18:12:41.668Z,96046.50
2022-08-22T18:15:08.030Z,96054.31
2022-08-22T18:17:34.409Z,96051.53
2022-08-22T18:20:00.774Z,96055.13
2022-08-22T18:22:27.130Z,96058.78
2022-08-22T18:24:53.499Z,96060.34
2022-08-22T18:27:30.069Z,96060.22
2022-08-22T18:30:04.119Z,96065.75
2022-08-22T18:32:30.476Z,96067.28
2022-08-22T18:34:59.803Z,96069.50
2022-08-22T18:37:29.108Z,96068.84
2022-08-22T18:39:55.809Z,96063.22
2022-08-22T18:42:22.205Z,96064.00
2022-08-22T18:44:48.564Z,96071.25
2022-08-22T18:47:14.920Z,96064.78
2022-08-22T18:49:41.278Z,96078.19
2022-08-22T18:52:07.713Z,96066.22
2022-08-22T18:54:34.097Z,96082.28
2022-08-22T18:57:00.448Z,96084.19
2022-08-22T18:59:26.823Z,96078.81
2022-08-22T19:01:53.843Z,96079.94
2022-08-22T19:04:20.603Z,96081.97
2022-08-22T19:06:46.989Z,96081.50
2022-08-22T19:09:15.068Z,96088.41
2022-08-22T19:11:42.258Z,96092.63
2022-08-22T19:14:08.624Z,96090.91
2022-08-22T19:16:35.000Z,96097.84
2022-08-22T19:19:03.031Z,96099.44
2022-08-22T19:21:29.409Z,96107.00
2022-08-22T19:23:55.785Z,96101.63
2022-08-22T19:26:22.149Z,96113.91
2022-08-22T19:28:48.517Z,96113.91
2022-08-22T19:31:16.565Z,96107.91
2022-08-22T19:33:43.106Z,96105.88
2022-08-22T19:36:09.469Z,96112.34
2022-08-22T19:38:35.840Z,96112.34
2022-08-22T19:41:02.214Z,96110.78
2022-08-22T19:43:28.671Z,96111.44
2022-08-22T19:45:55.030Z,96110.31
2022-08-22T19:48:21.402Z,96111.88
2022-08-22T19:50:47.794Z,96109.34
2022-08-22T19:53:14.163Z,96113.91
2022-08-22T19:55:40.516Z,96115.50
2022-08-22T19:58:06.892Z,96115.38
2022-08-22T20:00:33.254Z,96114.56
2022-08-22T20:02:59.701Z,96122.16
2022-08-22T20:05:26.175Z,96118.50
2022-08-22T20:07:52.532Z,96120.38
2022-08-22T20:10:18.892Z,96123.97
2022-08-22T20:12:45.251Z,96119.75
2022-08-22T20:15:11.614Z,96122.56
2022-08-22T20:17:37.992Z,96120.84
2022-08-22T20:20:19.677Z,96123.06
2022-08-22T20:22:52.730Z,96112.50
2022-08-22T20:25:42.320Z,96113.59
2022-08-22T20:28:10.161Z,96119.28
2022-08-22T20:30:36.538Z,96117.72
2022-08-22T20:33:02.904Z,96121.94
2022-08-22T20:35:29.265Z,96122.41
2022-08-22T20:38:10.895Z,96119.75
2022-08-22T20:40:55.428Z,96117.72
2022-08-22T20:43:23.222Z,96116.16
2022-08-22T20:45:49.589Z,96113.16
2022-08-22T20:48:16.203Z,96113.47
2022-08-22T20:50:42.564Z,96112.34
2022-08-22T20:53:09.650Z,96112.34
2022-08-22T20:55:36.254Z,96121.50
2022-08-22T20:58:02.643Z,96115.34
2022-08-22T21:00:29.017Z,96125.91
2022-08-22T21:02:55.396Z,96120.22
2022-08-22T21:05:21.761Z,96114.38
2022-08-22T21:07:48.138Z,96116.41
2022-08-22T21:10:16.737Z,96124.91
2022-08-22T21:12:46.600Z,96124.44
2022-08-22T21:15:12.966Z,96117.97
2022-08-22T21:17:39.592Z,96123.97
2022-08-22T21:20:06.022Z,96120.84
2022-08-22T21:22:32.378Z,96125.56
2022-08-22T21:24:58.741Z,96126.97
2022-08-22T21:27:25.097Z,96126.22
2022-08-22T21:29:51.449Z,96126.97
2022-08-22T21:32:17.805Z,96127.78
2022-08-22T21:34:44.176Z,96123.06
2022-08-22T21:37:10.607Z,96120.38
2022-08-22T21:39:36.990Z,96129.97
2022-08-22T21:42:03.350Z,96127.50
2022-08-22T21:44:29.764Z,96133.63
2022-08-22T21:46:56.137Z,96127.50
2022-08-22T21:49:22.513Z,96135.53
2022-08-22T21:51:48.885Z,96124.84
2022-08-22T21:54:18.217Z,96126.56
2022-08-22T21:56:45.289Z,96131.28
2022-08-22T21:59:12.153Z,96122.47
2022-08-22T22:01:38.756Z,96134.28
2022-08-22T22:04:09.148Z,96130.50
2022-08-22T22:06:35.520Z,96127.03
2022-08-22T22:09:01.877Z,96133.50
2022-08-22T22:11:28.224Z,96125.47
2022-08-22T22:13:54.601Z,96123.41
2022-08-22T22:16:20.963Z,96135.06
2022-08-22T22:18:47.339Z,96133.50
2022-08-22T22:21:13.720Z,96133.50
2022-08-22T22:23:40.085Z,96137.28
2022-08-22T22:26:06.456Z,96139.97
2022-08-22T22:28:32.817Z,96136.81
2022-08-22T22:30:59.193Z,96147.19
2022-08-22T22:33:25.562Z,96134.13
2022-08-22T22:35:51.931Z,96147.06
2022-08-22T22:38:23.278Z,96145.63
2022-08-22T22:40:50.424Z,96146.44
2022-08-22T22:43:16.789Z,96148.63
2022-08-22T22:45:43.148Z,96147.84
2022-08-22T22:48:09.511Z,96162.34
2022-08-22T22:50:35.856Z,96157.31
2022-08-22T22:53:03.411Z,96160.47
2022-08-22T22:55:29.764Z,96167.22
2022-08-22T22:57:58.923Z,96163.78
2022-08-22T23:00:25.867Z,96160.63
2022-08-22T23:02:57.418Z,96164.44
2022-08-22T23:05:23.776Z,96160.16
2022-08-22T23:07:50.135Z,96164.44
2022-08-22T23:10:21.397Z,96165.06
2022-08-22T23:12:48.369Z,96169.78
2022-08-22T23:15:14.736Z,96173.88
2022-08-22T23:17:41.090Z,96169.31
2022-08-22T23:20:07.448Z,96173.56
2022-08-22T23:22:33.804Z,96172.00
2022-08-22T23:25:00.156Z,96165.84
2022-08-22T23:27:26.525Z,96175.78
2022-08-22T23:29:52.898Z,96171.19
2022-08-22T23:32:19.258Z,96170.44
2022-08-22T23:34:45.627Z,96173.44
2022-08-22T23:37:11.976Z,96173.09
2022-08-22T23:39:38.346Z,96174.19
2022-08-22T23:42:04.724Z,96180.66
2022-08-22T23:44:31.089Z,96182.22
2022-08-22T23:46:57.468Z,96180.66
2022-08-22T23:49:23.840Z,96177.97
2022-08-22T23:51:50.206Z,96179.53
2022-08-22T23:54:16.562Z,96177.97
2022-08-22T23:56:42.930Z,96176.44
2022-08-22T23:59:09.285Z,96171.06
